createdAt,value
2017-05-30T00:00:23.115Z,0
2017-05-30T00:01:03.711Z,0
2017-05-30T00:01:44.306Z,0
2017-05-30T00:02:24.883Z,0
2017-05-30T00:03:05.464Z,0
2017-05-30T00:03:46.050Z,0
2017-05-30T00:04:26.629Z,0
2017-05-30T00:05:07.214Z,0
2017-05-30T00:05:47.812Z,0
2017-05-30T00:06:28.374Z,0
2017-05-30T00:07:08.958Z,0
2017-05-30T00:07:49.540Z,0
2017-05-30T00:08:30.126Z,0
2017-05-30T00:09:10.741Z,0
2017-05-30T00:09:51.325Z,0
2017-05-30T00:10:31.914Z,0
2017-05-30T00:11:12.507Z,0
2017-05-30T00:11:53.083Z,0
2017-05-30T00:12:33.672Z,0
2017-05-30T00:13:14.260Z,0
2017-05-30T00:13:54.922Z,0
2017-05-30T00:14:35.509Z,0
2017-05-30T00:15:16.092Z,0
2017-05-30T00:15:56.672Z,0
2017-05-30T00:16:37.245Z,0
2017-05-30T00:17:17.826Z,0
2017-05-30T00:17:58.407Z,0
2017-05-30T00:18:38.997Z,0
2017-05-30T00:19:19.598Z,0
2017-05-30T00:20:00.204Z,0
2017-05-30T00:20:40.788Z,0
2017-05-30T00:21:21.381Z,0
2017-05-30T00:22:01.962Z,0
2017-05-30T00:22:42.543Z,0
2017-05-30T00:23:23.126Z,0
2017-05-30T00:24:03.709Z,0
2017-05-30T00:24:44.294Z,0
2017-05-30T00:25:24.883Z,0
2017-05-30T00:26:05.475Z,0
2017-05-30T00:26:46.060Z,0
2017-05-30T00:27:26.632Z,0
2017-05-30T00:28:07.220Z,0
2017-05-30T00:28:47.814Z,0
2017-05-30T00:29:28.390Z,0
2017-05-30T00:30:08.969Z,0
2017-05-30T00:30:49.556Z,0
2017-05-30T00:31:30.162Z,0
2017-05-30T00:32:10.751Z,0
2017-05-30T00:32:51.330Z,0
2017-05-30T00:33:31.903Z,0
2017-05-30T00:34:12.487Z,0
2017-05-30T00:34:53.077Z,0
2017-05-30T00:35:33.661Z,0
2017-05-30T00:36:14.239Z,0
2017-05-30T00:36:54.821Z,0
2017-05-30T00:37:35.394Z,0
2017-05-30T00:38:15.989Z,0
2017-05-30T00:38:56.583Z,0
2017-05-30T00:39:37.160Z,0
2017-05-30T00:40:17.739Z,0
2017-05-30T00:40:58.322Z,0
2017-05-30T00:41:38.891Z,0
2017-05-30T00:42:19.469Z,0
2017-05-30T00:43:00.052Z,0
2017-05-30T00:43:40.654Z,0
2017-05-30T00:44:21.238Z,0
2017-05-30T00:45:01.814Z,0
2017-05-30T00:45:42.396Z,0
2017-05-30T00:46:22.984Z,0
2017-05-30T00:47:03.569Z,0
2017-05-30T00:47:44.199Z,0
2017-05-30T00:48:24.756Z,0
2017-05-30T00:49:05.330Z,0
2017-05-30T00:49:45.919Z,0
2017-05-30T00:50:26.500Z,0
2017-05-30T00:51:07.087Z,0
2017-05-30T00:51:47.744Z,0
2017-05-30T00:52:28.283Z,0
2017-05-30T00:53:08.871Z,0
2017-05-30T00:53:49.466Z,0
2017-05-30T00:54:30.068Z,0
2017-05-30T00:55:10.644Z,0
2017-05-30T00:55:51.286Z,0
2017-05-30T00:56:31.816Z,0
2017-05-30T00:57:12.400Z,0
2017-05-30T00:57:52.979Z,0
2017-05-30T00:58:33.572Z,0
2017-05-30T00:59:14.162Z,0
2017-05-30T00:59:54.778Z,0
2017-05-30T01:00:35.377Z,0
2017-05-30T01:01:15.960Z,0
2017-05-30T01:01:56.559Z,0
2017-05-30T01:02:37.158Z,0
2017-05-30T01:03:17.737Z,0
2017-05-30T01:03:58.314Z,0
2017-05-30T01:04:38.899Z,0
2017-05-30T01:05:19.481Z,0
2017-05-30T01:06:00.077Z,0
2017-05-30T01:06:40.661Z,0
2017-05-30T01:07:21.258Z,0
2017-05-30T01:08:01.841Z,0
2017-05-30T01:08:42.434Z,0
2017-05-30T01:09:23.011Z,0
2017-05-30T01:10:03.603Z,0
2017-05-30T01:10:44.188Z,0
2017-05-30T01:11:24.775Z,0
2017-05-30T01:12:05.351Z,0
2017-05-30T01:12:45.934Z,0
2017-05-30T01:13:26.526Z,0
2017-05-30T01:14:07.104Z,0
2017-05-30T01:14:47.683Z,0
2017-05-30T01:15:28.294Z,0
2017-05-30T01:16:08.874Z,0
2017-05-30T01:16:49.468Z,0
2017-05-30T01:17:30.047Z,0
2017-05-30T01:18:10.651Z,0
2017-05-30T01:18:51.240Z,0
2017-05-30T01:19:31.826Z,0
2017-05-30T01:20:12.424Z,0
2017-05-30T01:20:53.011Z,0
2017-05-30T01:21:33.619Z,0
2017-05-30T01:22:14.216Z,0
2017-05-30T01:22:54.809Z,0
2017-05-30T01:23:35.393Z,0
2017-05-30T01:24:15.980Z,0
2017-05-30T01:24:56.589Z,0
2017-05-30T01:25:37.181Z,0
2017-05-30T01:26:17.765Z,0
2017-05-30T01:26:58.357Z,0
2017-05-30T01:27:38.940Z,0
2017-05-30T01:28:19.522Z,0
2017-05-30T01:29:00.141Z,0
2017-05-30T01:29:40.732Z,0
2017-05-30T01:30:21.311Z,0
2017-05-30T01:31:01.891Z,0
2017-05-30T01:31:42.475Z,0
2017-05-30T01:32:23.056Z,0
2017-05-30T01:33:03.647Z,0
2017-05-30T01:33:44.229Z,0
2017-05-30T01:34:24.807Z,0
2017-05-30T01:35:05.385Z,0
2017-05-30T01:35:45.969Z,0
2017-05-30T01:36:26.555Z,0
2017-05-30T01:37:07.143Z,0
2017-05-30T01:37:47.738Z,0
2017-05-30T01:38:28.316Z,0
2017-05-30T01:39:08.915Z,0
2017-05-30T01:39:49.535Z,0
2017-05-30T01:40:30.114Z,0
2017-05-30T01:41:10.692Z,0
2017-05-30T01:41:51.281Z,0
2017-05-30T01:42:31.872Z,0
2017-05-30T01:43:12.468Z,0
2017-05-30T01:43:53.050Z,0
2017-05-30T01:44:33.621Z,0
2017-05-30T01:45:14.224Z,0
2017-05-30T01:45:54.815Z,0
2017-05-30T01:46:35.452Z,0
2017-05-30T01:47:16.035Z,0
2017-05-30T01:47:56.620Z,0
2017-05-30T01:48:37.210Z,0
2017-05-30T01:49:17.819Z,0
2017-05-30T01:49:58.407Z,0
2017-05-30T01:50:38.995Z,0
2017-05-30T01:51:19.588Z,0
2017-05-30T01:52:00.166Z,0
2017-05-30T01:52:40.757Z,0
2017-05-30T01:53:21.327Z,0
2017-05-30T01:54:01.915Z,0
2017-05-30T01:54:42.496Z,0
2017-05-30T01:55:23.097Z,0
2017-05-30T01:56:03.687Z,0
2017-05-30T01:56:44.271Z,0
2017-05-30T01:57:24.864Z,0
2017-05-30T01:58:05.453Z,0
2017-05-30T01:58:46.028Z,0
2017-05-30T01:59:26.614Z,0
2017-05-30T02:00:07.202Z,0
2017-05-30T02:00:47.881Z,0
2017-05-30T02:01:28.462Z,0
2017-05-30T02:02:09.074Z,0
2017-05-30T02:02:49.682Z,0
2017-05-30T02:03:30.273Z,0
2017-05-30T02:04:10.874Z,0
2017-05-30T02:04:51.468Z,0
2017-05-30T02:05:32.058Z,0
2017-05-30T02:06:12.646Z,0
2017-05-30T02:06:53.285Z,0
2017-05-30T02:07:33.878Z,0
2017-05-30T02:08:14.475Z,0
2017-05-30T02:08:55.069Z,0
2017-05-30T02:09:35.696Z,0
2017-05-30T02:10:16.277Z,0
2017-05-30T02:10:56.866Z,0
2017-05-30T02:11:37.459Z,0
2017-05-30T02:12:18.046Z,0
2017-05-30T02:12:58.633Z,0
2017-05-30T02:13:39.216Z,4
2017-05-30T02:14:19.807Z,4
2017-05-30T02:15:00.405Z,4
2017-05-30T02:15:40.996Z,4
2017-05-30T02:16:21.575Z,0
2017-05-30T02:17:02.142Z,0
2017-05-30T02:17:42.745Z,0
2017-05-30T02:18:23.342Z,4
2017-05-30T02:19:03.950Z,4
2017-05-30T02:19:44.527Z,4
2017-05-30T02:20:25.117Z,4
2017-05-30T02:21:05.707Z,4
2017-05-30T02:21:46.286Z,4
2017-05-30T02:22:26.880Z,4
2017-05-30T02:23:07.471Z,4
2017-05-30T02:23:48.064Z,8
2017-05-30T02:24:28.651Z,4
2017-05-30T02:25:09.244Z,8
2017-05-30T02:25:49.824Z,8
2017-05-30T02:26:30.433Z,8
2017-05-30T02:27:11.052Z,8
2017-05-30T02:27:51.648Z,12
2017-05-30T02:28:32.246Z,8
2017-05-30T02:29:12.840Z,12
2017-05-30T02:29:53.437Z,12
2017-05-30T02:30:34.034Z,12
2017-05-30T02:31:14.628Z,12
2017-05-30T02:31:55.208Z,12
2017-05-30T02:32:35.813Z,16
2017-05-30T02:33:16.395Z,16
2017-05-30T02:33:56.992Z,16
2017-05-30T02:34:37.576Z,16
2017-05-30T02:35:18.168Z,20
2017-05-30T02:35:58.760Z,20
2017-05-30T02:36:39.338Z,24
2017-05-30T02:37:19.921Z,28
2017-05-30T02:38:00.500Z,24
2017-05-30T02:38:41.076Z,28
2017-05-30T02:39:21.668Z,32
2017-05-30T02:40:02.263Z,32
2017-05-30T02:40:42.853Z,32
2017-05-30T02:41:23.431Z,36
2017-05-30T02:42:04.008Z,40
2017-05-30T02:42:44.595Z,44
2017-05-30T02:43:25.186Z,44
2017-05-30T02:44:05.790Z,48
2017-05-30T02:44:46.371Z,48
2017-05-30T02:45:26.959Z,56
2017-05-30T02:46:07.539Z,60
2017-05-30T02:46:48.136Z,60
2017-05-30T02:47:28.719Z,64
2017-05-30T02:48:09.302Z,68
2017-05-30T02:48:49.896Z,72
2017-05-30T02:49:30.486Z,76
2017-05-30T02:50:11.067Z,76
2017-05-30T02:50:51.656Z,80
2017-05-30T02:51:32.254Z,88
2017-05-30T02:52:12.836Z,92
2017-05-30T02:52:53.411Z,92
2017-05-30T02:53:33.989Z,96
2017-05-30T02:54:14.572Z,100
2017-05-30T02:54:55.165Z,108
2017-05-30T02:55:35.752Z,112
2017-05-30T02:56:16.325Z,116
2017-05-30T02:56:56.921Z,120
2017-05-30T02:57:37.523Z,128
2017-05-30T02:58:18.119Z,136
2017-05-30T02:58:58.708Z,140
2017-05-30T02:59:39.307Z,148
2017-05-30T03:00:19.915Z,148
2017-05-30T03:01:00.491Z,156
2017-05-30T03:01:41.085Z,164
2017-05-30T03:02:21.676Z,168
2017-05-30T03:03:02.286Z,176
2017-05-30T03:03:42.871Z,180
2017-05-30T03:04:23.530Z,192
2017-05-30T03:05:04.161Z,196
2017-05-30T03:05:44.739Z,204
2017-05-30T03:06:25.335Z,212
2017-05-30T03:07:05.957Z,220
2017-05-30T03:07:46.535Z,228
2017-05-30T03:08:27.117Z,236
2017-05-30T03:09:07.702Z,240
2017-05-30T03:09:48.298Z,244
2017-05-30T03:10:28.879Z,252
2017-05-30T03:11:09.463Z,256
2017-05-30T03:11:50.070Z,264
2017-05-30T03:12:30.655Z,268
2017-05-30T03:13:11.268Z,272
2017-05-30T03:13:51.855Z,280
2017-05-30T03:14:32.430Z,288
2017-05-30T03:15:13.012Z,300
2017-05-30T03:15:53.598Z,304
2017-05-30T03:16:34.186Z,316
2017-05-30T03:17:14.775Z,328
2017-05-30T03:17:55.382Z,340
2017-05-30T03:18:35.990Z,356
2017-05-30T03:19:16.591Z,372
2017-05-30T03:19:57.187Z,392
2017-05-30T03:20:37.775Z,416
2017-05-30T03:21:18.354Z,444
2017-05-30T03:21:58.952Z,472
2017-05-30T03:22:39.533Z,500
2017-05-30T03:23:20.139Z,528
2017-05-30T03:24:00.731Z,556
2017-05-30T03:24:41.343Z,588
2017-05-30T03:25:21.930Z,620
2017-05-30T03:26:02.513Z,648
2017-05-30T03:26:43.113Z,676
2017-05-30T03:27:23.707Z,704
2017-05-30T03:28:04.301Z,728
2017-05-30T03:28:44.896Z,752
2017-05-30T03:29:25.495Z,780
2017-05-30T03:30:06.082Z,804
2017-05-30T03:30:46.671Z,828
2017-05-30T03:31:27.265Z,852
2017-05-30T03:32:07.867Z,880
2017-05-30T03:32:48.432Z,912
2017-05-30T03:33:29.012Z,940
2017-05-30T03:34:09.616Z,980
2017-05-30T03:34:50.218Z,1024
2017-05-30T03:35:30.818Z,1072
2017-05-30T03:36:11.409Z,1120
2017-05-30T03:36:51.991Z,1160
2017-05-30T03:37:32.569Z,1200
2017-05-30T03:38:13.178Z,1224
2017-05-30T03:38:53.775Z,1240
2017-05-30T03:39:34.370Z,1248
2017-05-30T03:40:14.952Z,1264
2017-05-30T03:40:55.549Z,1276
2017-05-30T03:41:36.139Z,1300
2017-05-30T03:42:16.718Z,1328
2017-05-30T03:42:57.314Z,1360
2017-05-30T03:43:37.894Z,1388
2017-05-30T03:44:18.474Z,1424
2017-05-30T03:44:59.090Z,1444
2017-05-30T03:45:39.698Z,1468
2017-05-30T03:46:20.289Z,1484
2017-05-30T03:47:00.880Z,1500
2017-05-30T03:47:41.471Z,1516
2017-05-30T03:48:22.047Z,1536
2017-05-30T03:49:02.683Z,1556
2017-05-30T03:49:43.270Z,1584
2017-05-30T03:50:23.871Z,1612
2017-05-30T03:51:04.464Z,1648
2017-05-30T03:51:45.056Z,1684
2017-05-30T03:52:25.641Z,1712
2017-05-30T03:53:06.218Z,1740
2017-05-30T03:53:46.802Z,1764
2017-05-30T03:54:27.434Z,1792
2017-05-30T03:55:08.017Z,1828
2017-05-30T03:55:48.612Z,1876
2017-05-30T03:56:29.205Z,1912
2017-05-30T03:57:09.818Z,1928
2017-05-30T03:57:50.402Z,1932
2017-05-30T03:58:31.002Z,1936
2017-05-30T03:59:11.592Z,1936
2017-05-30T03:59:52.207Z,1944
2017-05-30T04:00:32.794Z,1964
2017-05-30T04:01:13.393Z,1992
2017-05-30T04:01:53.976Z,2024
2017-05-30T04:02:34.576Z,2048
2017-05-30T04:03:15.161Z,2088
2017-05-30T04:03:55.747Z,2136
2017-05-30T04:04:36.338Z,2168
2017-05-30T04:05:16.916Z,2204
2017-05-30T04:05:57.492Z,2240
2017-05-30T04:06:38.081Z,2316
2017-05-30T04:07:18.670Z,2420
2017-05-30T04:07:59.267Z,2544
2017-05-30T04:08:39.857Z,2664
2017-05-30T04:09:20.447Z,2768
2017-05-30T04:10:01.037Z,2900
2017-05-30T04:10:41.632Z,2996
2017-05-30T04:11:22.227Z,3020
2017-05-30T04:12:02.813Z,3000
2017-05-30T04:12:43.390Z,2940
2017-05-30T04:13:23.995Z,2876
2017-05-30T04:14:04.582Z,2800
2017-05-30T04:14:45.166Z,2720
2017-05-30T04:15:25.767Z,2644
2017-05-30T04:16:06.352Z,2584
2017-05-30T04:16:46.935Z,2552
2017-05-30T04:17:27.533Z,2528
2017-05-30T04:18:08.120Z,2520
2017-05-30T04:18:48.710Z,2480
2017-05-30T04:19:29.308Z,2420
2017-05-30T04:20:09.894Z,2372
2017-05-30T04:20:50.475Z,2332
2017-05-30T04:21:31.065Z,2280
2017-05-30T04:22:11.666Z,2256
2017-05-30T04:22:52.270Z,2244
2017-05-30T04:23:32.882Z,2228
2017-05-30T04:24:13.485Z,2216
2017-05-30T04:24:54.082Z,2216
2017-05-30T04:25:34.681Z,2208
2017-05-30T04:26:15.269Z,2184
2017-05-30T04:26:55.882Z,2188
2017-05-30T04:27:36.477Z,2196
2017-05-30T04:28:17.076Z,2212
2017-05-30T04:28:57.681Z,2228
2017-05-30T04:29:38.270Z,2252
2017-05-30T04:30:18.863Z,2272
2017-05-30T04:30:59.458Z,2320
2017-05-30T04:31:40.044Z,2424
2017-05-30T04:32:20.632Z,2508
2017-05-30T04:33:01.223Z,2552
2017-05-30T04:33:41.802Z,2588
2017-05-30T04:34:22.441Z,2644
2017-05-30T04:35:03.008Z,2724
2017-05-30T04:35:43.600Z,2836
2017-05-30T04:36:24.177Z,2952
2017-05-30T04:37:04.760Z,3060
2017-05-30T04:37:45.333Z,3168
2017-05-30T04:38:25.910Z,3268
2017-05-30T04:39:06.485Z,3348
2017-05-30T04:39:47.076Z,3412
2017-05-30T04:40:27.653Z,3448
2017-05-30T04:41:08.286Z,3496
2017-05-30T04:41:48.876Z,3552
2017-05-30T04:42:29.477Z,3628
2017-05-30T04:43:10.063Z,3712
2017-05-30T04:43:50.670Z,3760
2017-05-30T04:44:31.268Z,3772
2017-05-30T04:45:11.869Z,3792
2017-05-30T04:45:52.464Z,3824
2017-05-30T04:46:33.035Z,3864
2017-05-30T04:47:13.622Z,3908
2017-05-30T04:47:54.205Z,3960
2017-05-30T04:48:34.798Z,4012
2017-05-30T04:49:15.363Z,4076
2017-05-30T04:49:55.957Z,4132
2017-05-30T04:50:36.569Z,4220
2017-05-30T04:51:17.162Z,4364
2017-05-30T04:51:57.743Z,4492
2017-05-30T04:52:38.359Z,4576
2017-05-30T04:53:18.937Z,4696
2017-05-30T04:53:59.522Z,4744
2017-05-30T04:54:40.119Z,4748
2017-05-30T04:55:20.808Z,4788
2017-05-30T04:56:01.381Z,4752
2017-05-30T04:56:41.971Z,4688
2017-05-30T04:57:22.557Z,4640
2017-05-30T04:58:03.163Z,4536
2017-05-30T04:58:43.763Z,4412
2017-05-30T04:59:24.352Z,4296
2017-05-30T05:00:04.940Z,4216
2017-05-30T05:00:45.530Z,4180
2017-05-30T05:01:26.132Z,4212
2017-05-30T05:02:06.737Z,4140
2017-05-30T05:02:47.322Z,3996
2017-05-30T05:03:27.916Z,3884
2017-05-30T05:04:08.511Z,3800
2017-05-30T05:04:49.110Z,3836
2017-05-30T05:05:29.702Z,3912
2017-05-30T05:06:10.291Z,4036
2017-05-30T05:06:50.881Z,4152
2017-05-30T05:07:31.467Z,4272
2017-05-30T05:08:12.053Z,4428
2017-05-30T05:08:52.641Z,4556
2017-05-30T05:09:33.238Z,4684
2017-05-30T05:10:13.830Z,4812
2017-05-30T05:10:54.424Z,4948
2017-05-30T05:11:35.069Z,5204
2017-05-30T05:12:15.687Z,5460
2017-05-30T05:12:56.271Z,5648
2017-05-30T05:13:36.892Z,5796
2017-05-30T05:14:17.527Z,5868
2017-05-30T05:14:58.136Z,5980
2017-05-30T05:15:38.801Z,6100
2017-05-30T05:16:19.386Z,6160
2017-05-30T05:16:59.976Z,6264
2017-05-30T05:17:40.564Z,6568
2017-05-30T05:18:21.158Z,6376
2017-05-30T05:19:01.757Z,6448
2017-05-30T05:19:42.343Z,6340
2017-05-30T05:20:22.929Z,6600
2017-05-30T05:21:03.509Z,6784
2017-05-30T05:21:44.079Z,7000
2017-05-30T05:22:24.672Z,7128
2017-05-30T05:23:05.259Z,6596
2017-05-30T05:23:45.839Z,7004
2017-05-30T05:24:26.419Z,6940
2017-05-30T05:25:07.011Z,6848
2017-05-30T05:25:47.594Z,11044
2017-05-30T05:26:28.173Z,24928
2017-05-30T05:27:08.764Z,42400
2017-05-30T05:27:49.364Z,53184
2017-05-30T05:28:29.961Z,55584
2017-05-30T05:29:10.557Z,58272
2017-05-30T05:29:51.148Z,60480
2017-05-30T05:30:31.721Z,61568
2017-05-30T05:31:12.329Z,61184
2017-05-30T05:31:52.919Z,62208
2017-05-30T05:32:33.557Z,63200
2017-05-30T05:33:14.145Z,62752
2017-05-30T05:33:54.728Z,61696
2017-05-30T05:34:35.314Z,60544
2017-05-30T05:35:15.956Z,59520
2017-05-30T05:35:56.538Z,60512
2017-05-30T05:36:37.130Z,61408
2017-05-30T05:37:17.721Z,61344
2017-05-30T05:37:58.309Z,61856
2017-05-30T05:38:38.888Z,63168
2017-05-30T05:39:19.540Z,63840
2017-05-30T05:40:00.154Z,63040
2017-05-30T05:40:40.749Z,62976
2017-05-30T05:41:21.337Z,64896
2017-05-30T05:42:01.980Z,66208
2017-05-30T05:42:43.908Z,67328
2017-05-30T05:43:24.510Z,67136
2017-05-30T05:44:05.091Z,66080
2017-05-30T05:44:45.700Z,65568
2017-05-30T05:45:26.318Z,64704
2017-05-30T05:46:17.791Z,65440
2017-05-30T05:46:59.728Z,64448
2017-05-30T05:47:40.320Z,64096
2017-05-30T05:50:34.381Z,65152
2017-05-30T05:51:14.968Z,64256
2017-05-30T05:51:55.578Z,62848
2017-05-30T05:52:36.175Z,64480
2017-05-30T05:53:16.798Z,66176
2017-05-30T05:53:57.407Z,66880
2017-05-30T05:54:38.007Z,67424
2017-05-30T05:55:18.590Z,68064
2017-05-30T05:55:59.295Z,66976
2017-05-30T05:56:39.892Z,68224
2017-05-30T05:57:20.495Z,65568
2017-05-30T05:58:01.095Z,65280
2017-05-30T05:58:41.692Z,67520
2017-05-30T05:59:22.308Z,69504
2017-05-30T06:00:02.938Z,71008
2017-05-30T06:00:43.548Z,71744
2017-05-30T06:01:24.123Z,73056
2017-05-30T06:02:04.730Z,68896
2017-05-30T06:02:45.348Z,68064
2017-05-30T06:03:25.953Z,70656
2017-05-30T06:04:06.584Z,73216
2017-05-30T06:04:47.181Z,75200
2017-05-30T06:05:27.815Z,74144
2017-05-30T06:06:08.404Z,74304
2017-05-30T06:06:48.991Z,74176
2017-05-30T06:07:29.581Z,74496
2017-05-30T06:08:10.185Z,72896
2017-05-30T06:08:50.950Z,72288
2017-05-30T06:09:31.543Z,70848
2017-05-30T06:10:12.149Z,71424
2017-05-30T06:10:52.772Z,72704
2017-05-30T06:11:33.364Z,72704
2017-05-30T06:12:13.960Z,72384
2017-05-30T06:12:54.556Z,74016
2017-05-30T06:13:35.138Z,72864
2017-05-30T06:14:15.742Z,71552
2017-05-30T06:14:56.341Z,71232
2017-05-30T06:15:36.941Z,73728
2017-05-30T06:16:17.572Z,74560
2017-05-30T06:16:58.169Z,74560
2017-05-30T06:17:38.770Z,72032
2017-05-30T06:18:19.360Z,68384
2017-05-30T06:18:59.958Z,68384
2017-05-30T06:19:40.548Z,69312
2017-05-30T06:20:21.145Z,70656
2017-05-30T06:21:01.733Z,72256
2017-05-30T06:21:42.400Z,71616
2017-05-30T06:22:23.014Z,70112
2017-05-30T06:23:03.611Z,72160
2017-05-30T06:23:44.197Z,72640
2017-05-30T06:24:24.812Z,72704
2017-05-30T06:25:05.404Z,72864
2017-05-30T06:25:45.986Z,76352
2017-05-30T06:26:26.644Z,80192
2017-05-30T06:27:07.236Z,80320
2017-05-30T06:27:47.869Z,76864
2017-05-30T06:28:28.461Z,72224
2017-05-30T06:29:09.043Z,70272
2017-05-30T06:29:49.648Z,71840
2017-05-30T06:30:30.244Z,71744
2017-05-30T06:31:10.836Z,72768
2017-05-30T06:31:51.429Z,72352
2017-05-30T06:32:32.077Z,73344
2017-05-30T06:33:12.690Z,73760
2017-05-30T06:33:53.307Z,74208
2017-05-30T06:34:34.002Z,74176
2017-05-30T06:35:14.678Z,73952
2017-05-30T06:35:55.322Z,74496
2017-05-30T06:36:35.931Z,75104
2017-05-30T06:37:16.523Z,75168
2017-05-30T06:37:57.158Z,73152
2017-05-30T06:38:37.812Z,69312
2017-05-30T06:39:18.446Z,58816
2017-05-30T06:39:59.139Z,65632
2017-05-30T06:40:39.751Z,68416
2017-05-30T06:41:20.377Z,72288
2017-05-30T06:42:01.082Z,75072
2017-05-30T06:42:41.756Z,72576
2017-05-30T06:43:22.423Z,71168
2017-05-30T06:44:03.042Z,66304
2017-05-30T06:44:43.704Z,70048
2017-05-30T06:45:24.315Z,73408
2017-05-30T06:46:04.942Z,32416
2017-05-30T06:46:45.575Z,47264
2017-05-30T06:47:26.166Z,74720
2017-05-30T06:48:06.754Z,32160
2017-05-30T06:48:47.346Z,75744
2017-05-30T06:49:27.935Z,78112
2017-05-30T06:50:08.546Z,72512
2017-05-30T06:50:49.138Z,41344
2017-05-30T06:51:29.736Z,79168
2017-05-30T06:52:10.330Z,19104
2017-05-30T06:52:50.950Z,80224
2017-05-30T06:53:31.552Z,71648
2017-05-30T06:54:12.158Z,23456
2017-05-30T06:54:52.879Z,13924
2017-05-30T06:55:33.489Z,14824
2017-05-30T06:56:14.081Z,20064
2017-05-30T06:56:54.677Z,42784
2017-05-30T06:57:35.280Z,69792
2017-05-30T06:58:15.876Z,45664
2017-05-30T06:58:56.507Z,14408
2017-05-30T06:59:37.107Z,15152
2017-05-30T07:00:17.729Z,76992
2017-05-30T07:00:58.326Z,72064
2017-05-30T07:01:38.930Z,73344
2017-05-30T07:02:19.536Z,18048
2017-05-30T07:03:00.143Z,30944
2017-05-30T07:03:40.755Z,68800
2017-05-30T07:04:21.352Z,15192
2017-05-30T07:05:01.957Z,14528
2017-05-30T07:05:42.559Z,15540
2017-05-30T07:06:23.167Z,19200
2017-05-30T07:07:03.834Z,40768
2017-05-30T07:07:44.436Z,59552
2017-05-30T07:08:25.131Z,73472
2017-05-30T07:09:05.775Z,75808
2017-05-30T07:09:46.432Z,75872
2017-05-30T07:10:27.215Z,74464
2017-05-30T07:11:07.827Z,17632
2017-05-30T07:11:48.458Z,15384
2017-05-30T07:12:29.039Z,14316
2017-05-30T07:13:09.625Z,64736
2017-05-30T07:13:50.213Z,28960
2017-05-30T07:14:30.803Z,73696
2017-05-30T07:15:11.432Z,75584
2017-05-30T07:15:52.014Z,43488
2017-05-30T07:16:32.613Z,32192
2017-05-30T07:17:13.216Z,62016
2017-05-30T07:17:53.826Z,56544
2017-05-30T07:18:34.422Z,44672
2017-05-30T07:19:15.020Z,15016
2017-05-30T07:19:55.677Z,12400
2017-05-30T07:20:36.258Z,12132
2017-05-30T07:21:16.856Z,33856
2017-05-30T07:21:57.614Z,11384
2017-05-30T07:22:38.414Z,10256
2017-05-30T07:23:19.195Z,11732
2017-05-30T07:24:00.050Z,74464
2017-05-30T07:24:40.739Z,71200
2017-05-30T07:25:21.565Z,77696
2017-05-30T07:26:02.322Z,72800
2017-05-30T07:26:43.119Z,73632
2017-05-30T07:27:23.907Z,75744
2017-05-30T07:28:04.656Z,73472
2017-05-30T07:28:45.457Z,57600
2017-05-30T07:29:26.134Z,78816
2017-05-30T07:30:06.950Z,32320
2017-05-30T07:30:47.647Z,68064
2017-05-30T07:31:28.287Z,30240
2017-05-30T07:32:09.034Z,34112
2017-05-30T07:32:49.875Z,18048
2017-05-30T07:33:30.699Z,12056
2017-05-30T07:34:11.377Z,10644
2017-05-30T07:34:52.006Z,10092
2017-05-30T07:35:32.588Z,10004
2017-05-30T07:36:13.187Z,10920
2017-05-30T07:36:53.777Z,9156
2017-05-30T07:37:34.370Z,8804
2017-05-30T07:38:14.989Z,8892
2017-05-30T07:38:55.601Z,9372
2017-05-30T07:39:36.208Z,23168
2017-05-30T07:40:16.792Z,17600
2017-05-30T07:40:57.382Z,60384
2017-05-30T07:41:37.977Z,71552
2017-05-30T07:42:18.638Z,74208
2017-05-30T07:42:59.247Z,72416
2017-05-30T07:43:39.824Z,58528
2017-05-30T07:44:20.405Z,57632
2017-05-30T07:45:01.006Z,45952
2017-05-30T07:45:41.603Z,78688
2017-05-30T07:46:22.204Z,39104
2017-05-30T07:47:02.796Z,77792
2017-05-30T07:47:43.387Z,81632
2017-05-30T07:48:23.980Z,83392
2017-05-30T07:49:04.580Z,85472
2017-05-30T07:49:45.179Z,86176
2017-05-30T07:50:25.773Z,86080
2017-05-30T07:51:06.375Z,84224
2017-05-30T07:51:46.984Z,81984
2017-05-30T07:52:27.573Z,84448
2017-05-30T07:53:08.160Z,80000
2017-05-30T07:53:48.773Z,83968
2017-05-30T07:54:29.372Z,80384
2017-05-30T07:55:09.978Z,76704
2017-05-30T07:55:50.570Z,77984
2017-05-30T07:56:31.203Z,76832
2017-05-30T07:57:11.845Z,74944
2017-05-30T07:57:52.442Z,70624
2017-05-30T07:58:33.037Z,49472
2017-05-30T07:59:13.644Z,29664
2017-05-30T07:59:54.241Z,15540
2017-05-30T08:00:34.834Z,13124
2017-05-30T08:01:15.418Z,11612
2017-05-30T08:01:56.022Z,10568
2017-05-30T08:02:36.654Z,14912
2017-05-30T08:03:17.273Z,20384
2017-05-30T08:03:57.880Z,19968
2017-05-30T08:04:38.483Z,19712
2017-05-30T08:05:19.075Z,19424
2017-05-30T08:05:59.676Z,19072
2017-05-30T08:06:40.322Z,18656
2017-05-30T08:07:20.905Z,18240
2017-05-30T08:08:01.500Z,17632
2017-05-30T08:08:42.163Z,16704
2017-05-30T08:09:23.194Z,14896
2017-05-30T08:10:04.832Z,15284
2017-05-30T08:10:48.753Z,14728
2017-05-30T08:11:35.650Z,15168
2017-05-30T08:12:17.049Z,14688
2017-05-30T08:12:57.640Z,14124
2017-05-30T08:13:38.739Z,12360
2017-05-30T08:14:19.340Z,14464
2017-05-30T08:14:59.952Z,14352
2017-05-30T08:15:40.594Z,13972
2017-05-30T08:16:21.191Z,13968
2017-05-30T08:17:01.784Z,14016
2017-05-30T08:17:42.381Z,13768
2017-05-30T08:18:22.986Z,13652
2017-05-30T08:19:03.849Z,13360
2017-05-30T08:19:44.467Z,13004
2017-05-30T08:20:26.156Z,13176
2017-05-30T08:21:06.815Z,12856
2017-05-30T08:21:47.409Z,13260
2017-05-30T08:22:28.859Z,12824
2017-05-30T08:23:09.482Z,13444
2017-05-30T08:23:50.084Z,13444
2017-05-30T08:24:30.746Z,13260
2017-05-30T08:25:11.646Z,12744
2017-05-30T08:25:52.024Z,11128
2017-05-30T08:26:32.616Z,12568
2017-05-30T08:27:13.814Z,12896
2017-05-30T08:27:54.416Z,12768
2017-05-30T08:28:35.008Z,12624
2017-05-30T08:29:15.590Z,12552
2017-05-30T08:29:56.191Z,12680
2017-05-30T08:30:36.800Z,12832
2017-05-30T08:31:17.438Z,12804
2017-05-30T08:31:58.029Z,12788
2017-05-30T08:32:38.648Z,12084
2017-05-30T08:33:19.364Z,10068
2017-05-30T08:33:59.970Z,11344
2017-05-30T08:34:40.556Z,10452
2017-05-30T08:35:21.155Z,12000
2017-05-30T08:36:01.726Z,11316
2017-05-30T08:36:42.333Z,13092
2017-05-30T08:37:22.940Z,12964
2017-05-30T08:38:03.529Z,12604
2017-05-30T08:38:44.131Z,12136
2017-05-30T08:39:27.379Z,11680
2017-05-30T08:40:12.302Z,11320
2017-05-30T08:40:54.960Z,11068
2017-05-30T08:41:36.143Z,10952
2017-05-30T08:42:16.758Z,10752
2017-05-30T08:42:57.344Z,10684
2017-05-30T08:43:37.928Z,10536
2017-05-30T08:44:18.517Z,10340
2017-05-30T08:44:59.516Z,10148
2017-05-30T08:45:43.027Z,9964
2017-05-30T08:46:25.181Z,9780
2017-05-30T08:47:06.019Z,9620
2017-05-30T08:47:46.796Z,9432
2017-05-30T08:48:27.401Z,9328
2017-05-30T08:49:07.988Z,9324
2017-05-30T08:49:51.362Z,9312
2017-05-30T08:50:36.120Z,9348
2017-05-30T08:51:18.596Z,9360
2017-05-30T08:51:59.218Z,9304
2017-05-30T08:52:54.312Z,9304
2017-05-30T08:53:58.081Z,9308
2017-05-30T08:54:40.854Z,9416
2017-05-30T08:55:23.880Z,9516
2017-05-30T08:56:04.466Z,9588
2017-05-30T08:56:45.151Z,9624
2017-05-30T08:57:26.382Z,9624
2017-05-30T08:58:12.731Z,9676
2017-05-30T08:58:53.306Z,9712
2017-05-30T08:59:33.913Z,9704
2017-05-30T09:00:14.497Z,9684
2017-05-30T09:00:57.294Z,9564
2017-05-30T09:01:38.180Z,9440
2017-05-30T09:02:18.769Z,9380
2017-05-30T09:02:59.375Z,9220
2017-05-30T09:03:39.967Z,8980
2017-05-30T09:04:20.545Z,8952
2017-05-30T09:05:01.138Z,8916
2017-05-30T09:05:44.680Z,8872
2017-05-30T09:06:35.963Z,8968
2017-05-30T09:07:24.208Z,9124
2017-05-30T09:08:04.882Z,9344
2017-05-30T09:08:45.472Z,9328
2017-05-30T09:09:26.082Z,9512
2017-05-30T09:10:06.667Z,9564
2017-05-30T09:10:47.270Z,9536
2017-05-30T09:11:28.451Z,9476
2017-05-30T09:12:09.139Z,7944
2017-05-30T09:12:49.740Z,7716
2017-05-30T09:13:30.320Z,7824
2017-05-30T09:14:10.911Z,9220
2017-05-30T09:14:51.515Z,8952
2017-05-30T09:15:32.113Z,8024
2017-05-30T09:16:12.716Z,9056